Time;durP1;ratioP1;P1;durP2;ratioP2;P2;SDS_P1;SDS_P2;PMS_P1;PMS_P2;Temp;Humidity;BMP_temperature;BMP_pressure;BME280_temperature;BME280_humidity;BME280_pressure;Samples;Min_cycle;Max_cycle;Signal;HPM_P1;HPM_P2
2021/07/08 00:02:10;;;;;;;10.20;7.05;;;;;;;15.97;99.37;101775.88;5172868;28;20027;-68
2021/07/08 00:04:43;;;;;;;9.48;7.45;;;;;;;15.91;99.79;101755.28;5176870;28;20483;-68
2021/07/08 00:07:14;;;;;;;9.50;7.93;;;;;;;15.92;99.40;101773.66;5164103;28;20038;-68
2021/07/08 00:09:45;;;;;;;8.27;6.85;;;;;;;15.91;100.00;101768.50;5176539;28;20023;-68
2021/07/08 00:12:17;;;;;;;9.02;7.13;;;;;;;15.84;99.35;101781.47;5170229;28;20023;-68
2021/07/08 00:14:48;;;;;;;7.95;7.13;;;;;;;15.84;99.55;101772.72;5179180;28;20031;-68
2021/07/08 00:17:19;;;;;;;11.73;6.85;;;;;;;15.81;99.67;101766.72;5179260;28;20027;-68
2021/07/08 00:19:51;;;;;;;9.65;7.32;;;;;;;15.76;100.00;101762.88;5174671;28;20035;-68
2021/07/08 00:22:22;;;;;;;11.23;7.82;;;;;;;15.79;100.00;101767.84;5169926;28;20046;-68
2021/07/08 00:24:53;;;;;;;11.52;8.10;;;;;;;15.67;100.00;101759.22;5150522;28;20023;-68
2021/07/08 00:27:24;;;;;;;10.00;8.50;;;;;;;15.76;100.00;101761.06;5169848;28;20023;-68
2021/07/08 00:29:56;;;;;;;10.00;8.32;;;;;;;15.69;100.00;101749.38;5178626;28;20019;-68
2021/07/08 00:32:27;;;;;;;10.13;8.73;;;;;;;15.70;100.00;101755.50;5178970;28;20014;-68
2021/07/08 00:34:58;;;;;;;10.52;8.23;;;;;;;15.71;100.00;101757.97;5170004;28;20309;-68
2021/07/08 00:37:30;;;;;;;11.15;8.05;;;;;;;15.64;100.00;101761.28;5178637;28;20488;-68
2021/07/08 00:40:03;;;;;;;10.52;7.78;;;;;;;15.60;100.00;101755.44;5178486;28;20023;-68
2021/07/08 00:42:35;;;;;;;11.27;8.13;;;;;;;15.54;100.00;101764.78;5178945;28;20110;-68
2021/07/08 00:45:09;;;;;;;12.75;8.48;;;;;;;15.48;100.00;101765.34;5176034;28;20089;-68
2021/07/08 00:47:40;;;;;;;9.80;8.05;;;;;;;15.48;100.00;101765.34;5178328;28;20030;-68
2021/07/08 00:50:15;;;;;;;10.20;8.38;;;;;;;15.55;100.00;101778.81;5178035;28;20029;-68
2021/07/08 00:52:46;;;;;;;11.60;7.50;;;;;;;15.53;100.00;101772.84;5160133;28;20035;-68
2021/07/08 00:55:17;;;;;;;11.40;8.35;;;;;;;15.44;100.00;101771.88;5178473;28;20069;-68
2021/07/08 00:57:52;;;;;;;8.48;7.28;;;;;;;15.42;100.00;101772.97;5178344;28;20050;-68
2021/07/08 01:00:28;;;;;;;8.18;7.38;;;;;;;15.45;100.00;101770.06;5168678;28;20027;-68
2021/07/08 01:02:59;;;;;;;9.48;7.82;;;;;;;15.39;100.00;101773.28;5173620;28;20031;-68
2021/07/08 01:05:33;;;;;;;7.90;7.10;;;;;;;15.45;100.00;101776.16;5158565;28;20486;-68
2021/07/08 01:08:05;;;;;;;8.68;6.97;;;;;;;15.46;100.00;101772.59;5158680;28;20054;-68
2021/07/08 01:10:37;;;;;;;9.07;7.63;;;;;;;15.66;100.00;101780.53;5169096;28;20483;-67
2021/07/08 01:13:08;;;;;;;8.93;7.85;;;;;;;15.58;100.00;101787.31;5178152;28;20244;-68
2021/07/08 01:15:40;;;;;;;8.23;7.32;;;;;;;15.51;100.00;101783.56;5160339;28;20410;-68
2021/07/08 01:18:12;;;;;;;8.25;7.32;;;;;;;15.57;100.00;101783.00;5169356;28;20035;-68
2021/07/08 01:20:44;;;;;;;8.02;7.13;;;;;;;15.60;100.00;101788.97;5175577;28;20027;-68
2021/07/08 01:23:15;;;;;;;9.05;7.80;;;;;;;15.48;100.00;101786.47;5178207;28;20142;-68
2021/07/08 01:25:47;;;;;;;8.38;7.57;;;;;;;15.44;100.00;101784.25;5177838;28;20015;-68
2021/07/08 01:28:18;;;;;;;9.23;7.22;;;;;;;15.56;100.00;101783.97;5172178;28;20467;-68
2021/07/08 01:30:49;;;;;;;8.68;7.25;;;;;;;15.64;100.00;101788.53;5177366;28;20031;-68
2021/07/08 01:33:21;;;;;;;9.60;7.43;;;;;;;15.66;100.00;101775.25;5178393;28;20027;-68
2021/07/08 01:35:52;;;;;;;7.95;6.93;;;;;;;15.58;100.00;101779.38;5155022;28;20346;-68
2021/07/08 01:38:23;;;;;;;11.25;7.35;;;;;;;15.58;100.00;101781.19;5177319;28;20023;-68
2021/07/08 01:40:54;;;;;;;8.43;7.32;;;;;;;15.58;100.00;101783.84;5176811;28;20038;-68
2021/07/08 01:43:26;;;;;;;8.30;6.95;;;;;;;15.63;100.00;101783.41;5172075;28;20106;-68
2021/07/08 01:45:57;;;;;;;8.50;7.50;;;;;;;15.62;100.00;101773.81;5172071;28;20035;-68
2021/07/08 01:48:28;;;;;;;11.07;7.95;;;;;;;15.52;100.00;101774.66;5177415;28;20026;-68
2021/07/08 01:51:02;;;;;;;8.65;7.75;;;;;;;15.62;100.00;101768.53;5177056;28;20045;-68
2021/07/08 01:53:34;;;;;;;9.40;8.40;;;;;;;15.56;100.00;101773.38;5174122;28;20065;-68
2021/07/08 01:56:05;;;;;;;10.10;8.60;;;;;;;15.55;100.00;101765.63;5159704;28;20031;-68
2021/07/08 01:58:36;;;;;;;9.23;8.25;;;;;;;15.56;100.00;101764.63;5177093;28;20022;-68
2021/07/08 02:01:08;;;;;;;10.30;8.35;;;;;;;15.55;100.00;101769.09;5163749;28;20285;-68
2021/07/08 02:03:39;;;;;;;10.80;8.30;;;;;;;15.55;100.00;101769.09;5168869;28;20129;-68
2021/07/08 02:06:11;;;;;;;11.65;8.93;;;;;;;15.57;100.00;101761.03;5175657;28;20567;-68
2021/07/08 02:08:43;;;;;;;12.10;9.68;;;;;;;15.53;100.00;101757.84;5161313;28;20030;-68
2021/07/08 02:11:15;;;;;;;11.60;9.63;;;;;;;15.45;100.00;101752.41;5172111;28;20034;-68
2021/07/08 02:13:46;;;;;;;11.10;9.43;;;;;;;15.39;100.00;101752.97;5167896;28;20388;-68
2021/07/08 02:16:18;;;;;;;10.35;9.02;;;;;;;15.38;100.00;101758.38;5169554;28;20026;-68
2021/07/08 02:18:50;;;;;;;10.10;9.00;;;;;;;15.35;100.00;101761.31;5174123;28;20054;-68
2021/07/08 02:21:21;;;;;;;11.48;9.85;;;;;;;15.33;100.00;101761.44;5177271;28;20085;-68
2021/07/08 02:23:52;;;;;;;12.23;9.65;;;;;;;15.31;100.00;101763.41;5176586;28;20469;-68
2021/07/08 02:26:24;;;;;;;11.18;9.85;;;;;;;15.23;100.00;101766.75;5175238;28;20030;-68
2021/07/08 02:28:55;;;;;;;10.95;9.85;;;;;;;15.21;100.00;101773.94;5177801;28;20037;-68
2021/07/08 02:31:27;;;;;;;11.98;9.10;;;;;;;15.23;100.00;101765.91;5176640;28;20449;-68
2021/07/08 02:33:58;;;;;;;12.50;9.02;;;;;;;15.21;100.00;101766.03;5172353;28;20396;-68
2021/07/08 02:36:29;;;;;;;22.85;10.30;;;;;;;15.24;100.00;101771.03;5176600;28;20026;-68
2021/07/08 02:39:01;;;;;;;12.18;8.98;;;;;;;15.25;100.00;101766.59;5175757;28;20031;-68
2021/07/08 02:41:32;;;;;;;11.63;9.90;;;;;;;15.18;100.00;101755.75;5173555;28;20037;-68
2021/07/08 02:44:04;;;;;;;11.40;9.20;;;;;;;15.20;100.00;101774.94;5176310;28;20059;-68
2021/07/08 02:46:35;;;;;;;9.68;8.68;;;;;;;15.23;100.00;101773.81;5176096;28;20065;-68
2021/07/08 02:49:07;;;;;;;12.95;9.70;;;;;;;15.29;100.00;101776.72;5174369;28;20354;-68
2021/07/08 02:51:38;;;;;;;16.33;10.13;;;;;;;15.27;100.00;101770.78;5173575;28;20019;-68
2021/07/08 02:54:09;;;;;;;14.30;10.45;;;;;;;15.28;100.00;101774.25;5175665;28;20015;-68
2021/07/08 02:56:41;;;;;;;12.45;10.63;;;;;;;15.32;100.00;101780.91;5176863;28;20023;-68
2021/07/08 02:59:12;;;;;;;13.05;10.60;;;;;;;15.35;100.00;101785.91;5174312;28;20093;-68
2021/07/08 03:01:43;;;;;;;17.98;10.95;;;;;;;15.33;100.00;101788.69;5176781;28;20031;-68
2021/07/08 03:04:14;;;;;;;15.75;11.57;;;;;;;15.39;100.00;101783.84;5176498;28;20108;-68
2021/07/08 03:06:46;;;;;;;15.68;10.32;;;;;;;15.42;100.00;101789.69;5163788;28;20031;-68
2021/07/08 03:09:17;;;;;;;12.55;10.45;;;;;;;15.41;100.00;101777.44;5164632;28;20029;-68
2021/07/08 03:11:48;;;;;;;16.38;11.30;;;;;;;15.42;100.00;101789.69;5172409;28;20027;-68
2021/07/08 03:14:20;;;;;;;14.95;10.73;;;;;;;15.42;100.00;101787.03;5175515;28;20022;-68
2021/07/08 03:16:51;;;;;;;18.90;11.95;;;;;;;15.42;100.00;101791.47;5173474;28;20109;-68
2021/07/08 03:19:22;;;;;;;11.77;10.48;;;;;;;15.45;100.00;101794.66;5180237;28;20050;-68
2021/07/08 03:21:54;;;;;;;14.83;10.50;;;;;;;15.46;100.00;101796.34;5177910;28;20090;-68
2021/07/08 03:24:25;;;;;;;12.00;10.50;;;;;;;15.45;100.00;101791.19;5180339;28;20329;-68
2021/07/08 03:26:56;;;;;;;11.57;10.23;;;;;;;15.47;100.00;101794.53;5178428;28;20507;-68
2021/07/08 03:29:28;;;;;;;13.27;10.95;;;;;;;15.41;100.00;101793.28;5180163;28;20543;-68
2021/07/08 03:31:59;;;;;;;14.40;11.35;;;;;;;15.50;100.00;101794.25;5180381;28;20022;-68
2021/07/08 03:34:30;;;;;;;12.80;11.25;;;;;;;15.57;100.00;101790.09;5179322;28;20031;-68
2021/07/08 03:37:02;;;;;;;11.98;10.38;;;;;;;15.58;100.00;101789.94;5177364;28;20030;-68
2021/07/08 03:39:33;;;;;;;13.10;11.43;;;;;;;15.51;100.00;101794.13;5179778;28;20065;-68
2021/07/08 03:42:05;;;;;;;13.85;11.00;;;;;;;15.53;100.00;101796.59;5177205;28;20563;-68
2021/07/08 03:44:36;;;;;;;11.50;10.15;;;;;;;15.57;100.00;101792.75;5174134;28;20062;-68
2021/07/08 03:47:08;;;;;;;12.35;10.88;;;;;;;15.55;100.00;101789.38;5175716;28;20459;-68
2021/07/08 03:49:39;;;;;;;12.73;10.80;;;;;;;15.53;100.00;101789.53;5175297;28;20110;-68
2021/07/08 03:52:10;;;;;;;13.02;11.63;;;;;;;15.45;100.00;101794.66;5167171;28;20407;-67
2021/07/08 03:54:41;;;;;;;14.23;11.05;;;;;;;15.51;100.00;101790.66;5176515;28;20034;-68
2021/07/08 03:57:13;;;;;;;15.10;11.45;;;;;;;15.46;100.00;101792.88;5179794;28;20151;-68
2021/07/08 03:59:44;;;;;;;14.27;11.18;;;;;;;15.51;100.00;101794.13;5179958;28;20027;-68
2021/07/08 04:02:15;;;;;;;13.60;10.98;;;;;;;15.44;100.00;101789.53;5169649;28;20063;-68
2021/07/08 04:04:47;;;;;;;13.20;11.82;;;;;;;15.39;100.00;101782.03;5158088;28;20051;-68
2021/07/08 04:07:18;;;;;;;13.65;10.90;;;;;;;15.40;100.00;101786.31;5173118;28;20395;-68
2021/07/08 04:09:49;;;;;;;14.90;10.32;;;;;;;15.40;100.00;101791.59;5178663;28;20102;-68
2021/07/08 04:12:21;;;;;;;14.70;11.00;;;;;;;15.37;100.00;101793.69;5174506;28;20023;-67
2021/07/08 04:14:52;;;;;;;15.57;11.63;;;;;;;15.39;100.00;101794.41;5178492;28;20069;-68
2021/07/08 04:17:23;;;;;;;14.52;11.68;;;;;;;15.48;100.00;101797.03;5177189;28;20034;-68
2021/07/08 04:19:54;;;;;;;14.32;11.48;;;;;;;15.39;100.00;101799.69;5168202;28;20082;-68
2021/07/08 04:22:26;;;;;;;12.85;11.43;;;;;;;15.40;100.00;101796.06;5179028;28;20026;-68
2021/07/08 04:24:57;;;;;;;12.65;11.38;;;;;;;15.41;100.00;101795.91;5177391;28;20027;-68
2021/07/08 04:27:28;;;;;;;13.55;11.45;;;;;;;15.44;100.00;101800.91;5179061;28;20038;-68
2021/07/08 04:30:00;;;;;;;14.60;11.63;;;;;;;15.56;100.00;101812.19;5161310;28;20025;-68
2021/07/08 04:32:31;;;;;;;15.70;11.95;;;;;;;15.52;100.00;101801.06;5178758;28;20169;-68
2021/07/08 04:35:03;;;;;;;17.38;12.90;;;;;;;15.56;100.00;101806.91;5178498;28;20018;-68
2021/07/08 04:37:40;;;;;;;13.50;12.10;;;;;;;15.57;100.00;101811.22;5175528;28;20034;-68
2021/07/08 04:40:14;;;;;;;13.27;11.95;;;;;;;15.67;100.00;101820.00;5179123;28;20027;-68
2021/07/08 04:42:51;;;;;;;14.68;11.93;;;;;;;15.69;100.00;101818.06;5179147;28;20460;-68
2021/07/08 04:45:22;;;;;;;13.73;11.75;;;;;;;15.70;100.00;101810.97;5173953;28;20019;-68
2021/07/08 04:47:54;;;;;;;16.20;12.73;;;;;;;15.74;100.00;101821.13;5175444;28;20369;-68
2021/07/08 04:50:25;;;;;;;17.45;12.52;;;;;;;15.71;100.00;101828.47;5161133;28;20031;-68
2021/07/08 04:52:57;;;;;;;14.45;12.93;;;;;;;15.74;100.00;101831.69;5177440;28;20057;-68
2021/07/08 04:55:28;;;;;;;12.43;11.07;;;;;;;15.87;100.00;101836.66;5170765;28;20034;-68
2021/07/08 04:57:59;;;;;;;15.95;12.38;;;;;;;15.92;100.00;101836.28;5168594;28;20472;-68
2021/07/08 05:00:31;;;;;;;15.90;12.57;;;;;;;15.95;100.00;101843.91;5175562;28;20037;-68
2021/07/08 05:03:09;;;;;;;13.95;12.38;;;;;;;15.99;100.00;101846.13;5178839;28;20073;-68
2021/07/08 05:05:40;;;;;;;14.30;12.68;;;;;;;16.03;100.00;101842.22;5171877;28;20534;-68
2021/07/08 05:08:11;;;;;;;15.70;12.68;;;;;;;16.11;100.00;101844.16;5178147;28;20038;-68
2021/07/08 05:10:43;;;;;;;14.05;12.65;;;;;;;16.15;100.00;101850.00;5177050;28;20046;-68
2021/07/08 05:13:14;;;;;;;17.88;13.35;;;;;;;16.26;100.00;101855.13;5173903;28;20066;-68
2021/07/08 05:15:45;;;;;;;15.00;13.48;;;;;;;16.31;100.00;101850.25;5173455;28;20023;-68
2021/07/08 05:18:17;;;;;;;15.45;12.70;;;;;;;16.41;100.00;101860.81;5166889;28;20034;-68
2021/07/08 05:20:49;;;;;;;19.88;12.93;;;;;;;16.41;100.00;101863.44;5177171;28;20303;-68
2021/07/08 05:23:25;;;;;;;16.90;12.77;;;;;;;16.44;100.00;101871.06;5177734;28;20011;-68
2021/07/08 05:25:56;;;;;;;17.95;14.32;;;;;;;16.46;100.00;101866.50;5174078;28;20114;-68
2021/07/08 05:28:28;;;;;;;17.40;14.32;;;;;;;16.47;100.00;101860.22;5173200;28;20103;-68
2021/07/08 05:30:59;;;;;;;19.52;13.73;;;;;;;16.54;100.00;101867.44;5172092;28;20492;-68
2021/07/08 05:33:30;;;;;;;17.58;14.70;;;;;;;16.56;100.00;101859.38;5161992;28;20201;-68
2021/07/08 05:36:01;;;;;;;16.70;14.90;;;;;;;16.61;100.00;101861.56;5173995;28;20030;-68
2021/07/08 05:38:33;;;;;;;18.08;14.13;;;;;;;16.65;99.95;101861.13;5177969;28;20024;-68
2021/07/08 05:41:04;;;;;;;18.17;14.77;;;;;;;16.68;99.74;101860.84;5172183;28;20384;-68
2021/07/08 05:43:35;;;;;;;17.05;15.25;;;;;;;16.69;99.96;101857.22;5170732;28;20058;-69
2021/07/08 05:46:07;;;;;;;20.80;15.27;;;;;;;16.75;100.00;101845.28;5177977;28;20027;-68
2021/07/08 05:48:38;;;;;;;20.65;15.10;;;;;;;16.87;100.00;101845.91;5177137;28;20042;-68
2021/07/08 05:51:09;;;;;;;20.20;15.73;;;;;;;16.91;99.88;101842.81;5176765;28;20047;-68
2021/07/08 05:53:41;;;;;;;18.40;15.10;;;;;;;16.94;99.72;101847.00;5174014;28;20052;-67
2021/07/08 05:56:12;;;;;;;17.85;14.65;;;;;;;16.96;99.00;101840.53;5171339;28;20033;-67
2021/07/08 05:58:43;;;;;;;17.80;14.77;;;;;;;17.07;99.95;101855.41;5177233;28;20027;-68
2021/07/08 06:01:15;;;;;;;17.00;15.20;;;;;;;17.10;98.94;101857.75;5176944;28;20270;-68
2021/07/08 06:03:47;;;;;;;18.08;14.32;;;;;;;17.20;99.33;101868.31;5170084;28;20046;-67
2021/07/08 06:06:19;;;;;;;21.05;15.75;;;;;;;17.29;100.00;101855.97;5169990;28;20030;-67
2021/07/08 06:08:50;;;;;;;20.60;14.63;;;;;;;17.34;99.14;101866.94;5168361;28;20033;-67
2021/07/08 06:11:21;;;;;;;17.27;14.57;;;;;;;17.39;96.78;101870.84;5158857;28;20404;-67
2021/07/08 06:13:53;;;;;;;18.88;13.90;;;;;;;17.46;98.43;101869.25;5176838;28;20060;-67
2021/07/08 06:16:25;;;;;;;15.93;14.20;;;;;;;17.58;96.86;101880.47;5177526;28;20031;-67
2021/07/08 06:18:56;;;;;;;20.33;14.23;;;;;;;17.61;95.71;101887.25;5170153;28;20019;-68
2021/07/08 06:21:28;;;;;;;16.98;12.77;;;;;;;17.67;95.14;101887.50;5171830;28;20066;-67
2021/07/08 06:23:59;;;;;;;15.43;13.13;;;;;;;17.70;94.95;101881.06;5163387;28;20077;-68
2021/07/08 06:26:30;;;;;;;15.52;12.40;;;;;;;17.78;95.14;101883.00;5157960;28;20720;-68
2021/07/08 06:29:02;;;;;;;15.95;13.38;;;;;;;17.94;95.11;101889.25;5177266;28;20033;-67
2021/07/08 06:31:34;;;;;;;14.50;12.97;;;;;;;17.99;94.10;101886.13;5175790;28;20034;-67
2021/07/08 06:34:06;;;;;;;16.85;12.00;;;;;;;18.03;92.84;101882.19;5172192;28;20420;-68
2021/07/08 06:36:38;;;;;;;14.85;13.25;;;;;;;18.12;93.39;101883.13;5174383;28;20037;-68
2021/07/08 06:39:09;;;;;;;15.32;12.70;;;;;;;18.16;93.49;101890.59;5174180;28;20034;-67
2021/07/08 06:41:40;;;;;;;14.27;12.77;;;;;;;18.22;91.07;101895.31;5173319;28;20665;-68
2021/07/08 06:44:11;;;;;;;14.80;11.15;;;;;;;18.32;91.87;101907.63;5157557;28;20039;-68
2021/07/08 06:46:49;;;;;;;15.88;12.43;;;;;;;18.36;92.75;101909.81;5173241;28;20026;-68
2021/07/08 06:49:21;;;;;;;15.60;11.48;;;;;;;18.42;91.02;101908.38;5175214;28;20026;-68
2021/07/08 06:51:52;;;;;;;13.55;11.90;;;;;;;18.55;91.07;101914.06;5176256;28;20284;-67
2021/07/08 06:54:24;;;;;;;13.93;10.63;;;;;;;18.63;91.85;101910.63;5171128;28;20046;-68
2021/07/08 06:56:55;;;;;;;14.05;11.13;;;;;;;18.76;89.29;101907.59;5173591;28;20054;-68
2021/07/08 06:59:26;;;;;;;12.87;10.37;;;;;;;18.86;88.07;101910.97;5176330;28;20316;-68
2021/07/08 07:01:57;;;;;;;16.52;11.30;;;;;;;18.93;88.41;101909.34;5175464;28;20031;-68
2021/07/08 07:04:29;;;;;;;13.17;10.20;;;;;;;19.05;87.31;101909.88;5175790;28;20078;-68
2021/07/08 07:07:00;;;;;;;12.98;9.27;;;;;;;19.11;86.04;101912.75;5176279;28;20026;-68
2021/07/08 07:09:31;;;;;;;12.80;8.37;;;;;;;19.18;85.78;101905.78;5174701;28;20551;-68
2021/07/08 07:12:03;;;;;;;13.80;7.83;;;;;;;19.24;83.11;101917.59;5174535;28;20110;-68
2021/07/08 07:14:34;;;;;;;10.13;7.03;;;;;;;19.37;83.42;101915.31;5174022;28;20058;-68
2021/07/08 07:17:05;;;;;;;9.67;6.00;;;;;;;19.46;82.13;101913.50;5171411;28;20029;-68
2021/07/08 07:19:37;;;;;;;7.40;5.10;;;;;;;19.58;80.90;101919.34;5176046;28;20019;-68
2021/07/08 07:22:08;;;;;;;7.57;5.37;;;;;;;19.67;79.65;101916.59;5169363;28;20476;-68
2021/07/08 07:24:41;;;;;;;7.77;5.30;;;;;;;19.79;79.53;101922.41;5170540;28;20109;-68
2021/07/08 07:27:12;;;;;;;8.65;4.72;;;;;;;19.89;77.16;101922.28;5176285;28;20660;-68
2021/07/08 07:29:43;;;;;;;9.23;4.50;;;;;;;19.94;78.54;101925.25;5145823;28;20139;-68
2021/07/08 07:32:14;;;;;;;5.63;4.20;;;;;;;20.03;78.05;101912.78;5174806;28;20031;-68
2021/07/08 07:34:46;;;;;;;6.10;4.20;;;;;;;19.98;75.80;101910.63;5156319;28;20300;-68
2021/07/08 07:37:17;;;;;;;5.77;4.03;;;;;;;20.10;76.98;101916.44;5172088;28;20038;-68
2021/07/08 07:39:48;;;;;;;7.50;4.37;;;;;;;20.13;76.14;101922.28;5166992;28;20034;-68
2021/07/08 07:42:20;;;;;;;7.53;4.37;;;;;;;20.25;77.24;101919.28;5171751;28;20054;-68
2021/07/08 07:44:51;;;;;;;5.90;3.97;;;;;;;20.31;76.49;101923.94;5174029;28;20057;-68
2021/07/08 07:47:24;;;;;;;6.40;4.03;;;;;;;20.50;76.31;101922.78;5173874;28;20045;-68
2021/07/08 07:49:55;;;;;;;6.63;3.90;;;;;;;20.49;76.37;101929.06;5172528;28;20026;-68
2021/07/08 07:52:27;;;;;;;5.53;3.40;;;;;;;20.50;75.39;101936.09;5175404;28;20026;-68
2021/07/08 07:54:58;;;;;;;4.73;3.70;;;;;;;20.53;73.69;101928.59;5168146;28;20221;-68
2021/07/08 07:57:30;;;;;;;5.60;3.97;;;;;;;20.58;72.44;101926.25;5174028;28;20357;-68
2021/07/08 08:00:03;;;;;;;5.00;3.33;;;;;;;20.77;74.99;101924.22;5178905;28;20023;-68
2021/07/08 08:02:34;;;;;;;8.48;3.33;;;;;;;20.82;74.10;101920.03;5176221;28;20026;-68
2021/07/08 08:05:22;;;;;;;6.20;3.63;;;;;;;20.93;75.89;101916.16;5178640;28;20043;-68
2021/07/08 08:10:44;;;;;;;5.72;3.13;;;;;;;21.18;74.17;101922.22;5173854;28;20046;-68
2021/07/08 08:13:19;;;;;;;5.17;3.30;;;;;;;21.21;69.92;101908.53;5173144;28;21958;-68
2021/07/08 08:15:51;;;;;;;5.18;3.03;;;;;;;21.29;72.07;101899.66;5174069;28;20014;-68
2021/07/08 08:18:24;;;;;;;4.68;2.70;;;;;;;21.32;69.67;101905.47;5172148;28;20030;-68
2021/07/08 08:20:55;;;;;;;5.72;2.97;;;;;;;21.38;70.36;101912.81;5172667;28;20031;-68
2021/07/08 08:23:26;;;;;;;4.80;3.40;;;;;;;21.51;71.67;101911.41;5172669;28;20031;-68
2021/07/08 08:26:00;;;;;;;6.17;2.93;;;;;;;21.36;68.57;101906.81;5169189;28;20085;-67
2021/07/08 08:28:31;;;;;;;3.88;3.00;;;;;;;21.41;68.92;101908.16;5173427;28;20031;-68
2021/07/08 08:31:03;;;;;;;5.20;3.43;;;;;;;21.48;69.68;101917.94;5168373;28;20015;-68
2021/07/08 08:33:35;;;;;;;5.53;3.55;;;;;;;21.50;68.78;101909.75;5173582;28;20031;-68
2021/07/08 08:36:06;;;;;;;4.67;2.93;;;;;;;21.61;70.13;101915.50;5160501;28;20077;-68
2021/07/08 08:38:37;;;;;;;5.57;3.20;;;;;;;21.68;69.57;101917.47;5174787;28;20042;-68
2021/07/08 08:41:09;;;;;;;4.70;3.00;;;;;;;21.83;68.48;101929.88;5168537;28;20346;-68
2021/07/08 08:43:40;;;;;;;6.93;3.20;;;;;;;21.92;69.36;101922.63;5173072;28;20069;-68
2021/07/08 08:46:12;;;;;;;5.80;3.27;;;;;;;22.03;68.81;101926.72;5171982;28;20065;-68
2021/07/08 08:48:43;;;;;;;5.53;2.77;;;;;;;22.02;67.38;101931.22;5172792;28;20035;-68
2021/07/08 08:51:16;;;;;;;5.33;3.10;;;;;;;22.10;68.36;101927.66;5168683;28;20031;-67
2021/07/08 08:53:48;;;;;;;6.15;3.10;;;;;;;22.24;67.72;101934.09;5176142;28;20092;-68
2021/07/08 08:56:19;;;;;;;6.10;3.60;;;;;;;22.18;65.99;101916.94;5178871;28;20600;-67
2021/07/08 08:58:50;;;;;;;4.97;2.90;;;;;;;22.22;66.51;101920.91;5178392;28;20053;-67
2021/07/08 09:01:22;;;;;;;7.17;3.43;;;;;;;22.24;67.31;101926.09;5175653;28;20524;-67
2021/07/08 09:03:53;;;;;;;7.53;3.20;;;;;;;22.37;66.42;101928.13;5175476;28;20050;-67
2021/07/08 09:06:33;;;;;;;5.10;3.47;;;;;;;22.30;65.64;101928.84;5172568;28;20031;-67
2021/07/08 09:09:09;;;;;;;6.20;2.88;;;;;;;22.28;68.34;101930.03;5167190;28;20031;-67
2021/07/08 09:11:40;;;;;;;7.18;2.90;;;;;;;22.28;65.74;101920.19;5177142;28;20031;-66
2021/07/08 09:14:13;;;;;;;5.13;2.63;;;;;;;22.63;67.16;101930.38;5173602;28;20065;-67
2021/07/08 09:16:44;;;;;;;4.50;2.60;;;;;;;22.82;65.85;101927.16;5172040;28;20476;-66
2021/07/08 09:19:21;;;;;;;4.50;2.90;;;;;;;22.94;64.96;101939.06;5178084;28;20018;-66
2021/07/08 09:21:56;;;;;;;5.30;2.92;;;;;;;23.12;64.45;101938.69;5177935;28;20031;-66
2021/07/08 09:24:31;;;;;;;7.13;3.03;;;;;;;23.14;61.88;101941.97;5169137;28;20054;-67
2021/07/08 09:27:04;;;;;;;7.10;3.05;;;;;;;23.10;61.70;101961.25;5176765;28;20117;-67
2021/07/08 09:29:39;;;;;;;4.35;2.97;;;;;;;23.06;61.55;101969.63;5174225;28;20058;-67
2021/07/08 09:32:14;;;;;;;5.20;2.67;;;;;;;22.94;62.52;101964.94;5156594;28;20022;-67
2021/07/08 09:34:47;;;;;;;6.55;2.80;;;;;;;22.71;63.43;101965.00;5167260;28;20026;-67
2021/07/08 09:37:24;;;;;;;3.97;2.70;;;;;;;22.61;63.16;101959.09;5171026;28;20110;-67
2021/07/08 09:40:01;;;;;;;3.95;2.25;;;;;;;22.57;63.50;101972.81;5169203;28;20543;-67
2021/07/08 09:42:35;;;;;;;3.92;2.28;;;;;;;22.46;64.13;101975.09;5169876;28;20110;-67
2021/07/08 09:45:07;;;;;;;4.95;2.45;;;;;;;22.34;63.32;101974.69;5175836;28;20358;-67
2021/07/08 09:47:41;;;;;;;4.28;2.40;;;;;;;22.20;63.05;101970.13;5167585;28;20094;-67
2021/07/08 09:50:22;;;;;;;3.20;2.17;;;;;;;22.08;63.13;101978.53;5170976;28;20515;-67
2021/07/08 09:53:26;;;;;;;4.55;2.60;;;;;;;22.28;65.05;101992.28;5171426;28;20037;-67
2021/07/08 09:58:54;;;;;;;5.03;2.30;;;;;;;22.62;65.94;101984.81;5166356;28;20073;-67
2021/07/08 10:01:26;;;;;;;5.15;2.20;;;;;;;22.78;65.30;101974.78;5158203;28;20027;-67
2021/07/08 10:03:57;;;;;;;2.90;1.80;;;;;;;23.11;63.12;101968.25;5167764;28;20073;-66
2021/07/08 10:06:30;;;;;;;2.97;1.77;;;;;;;23.10;60.94;101977.28;5167076;28;20411;-67
2021/07/08 10:09:06;;;;;;;4.00;1.98;;;;;;;23.23;62.14;101956.91;5169440;28;20038;-67
2021/07/08 10:11:38;;;;;;;5.10;2.00;;;;;;;23.26;63.25;101956.56;5176713;28;20252;-67
2021/07/08 10:14:10;;;;;;;4.20;2.20;;;;;;;23.34;61.88;101952.13;5167188;28;20077;-68
2021/07/08 10:16:47;;;;;;;3.60;2.30;;;;;;;23.50;62.24;101960.72;5170265;28;20027;-68
2021/07/08 10:19:21;;;;;;;5.35;2.28;;;;;;;23.49;63.11;101958.25;5175188;28;20030;-68
2021/07/08 10:21:53;;;;;;;5.55;2.90;;;;;;;23.54;60.08;101963.88;5167911;28;20046;-68
2021/07/08 10:24:24;;;;;;;5.13;2.17;;;;;;;23.54;60.31;101964.69;5167878;28;20492;-67
2021/07/08 10:26:56;;;;;;;2.27;1.83;;;;;;;23.70;61.32;101960.16;5169791;28;20027;-68
2021/07/08 10:29:29;;;;;;;4.95;2.47;;;;;;;23.63;60.18;101959.22;5145820;29;20050;-67
2021/07/08 10:32:00;;;;;;;3.92;2.00;;;;;;;23.75;61.67;101957.72;5169049;28;20141;-67
2021/07/08 10:34:43;;;;;;;3.70;2.20;;;;;;;23.79;61.05;101957.19;5167166;28;20026;-67
2021/07/08 10:37:28;;;;;;;3.72;2.22;;;;;;;23.86;59.89;101953.72;5170819;28;20089;-67
2021/07/08 10:40:01;;;;;;;4.55;2.38;;;;;;;23.51;58.21;101954.34;5167769;28;20034;-67
2021/07/08 10:42:53;;;;;;;5.00;2.78;;;;;;;23.43;61.26;101959.81;5167651;28;20090;-67
2021/07/08 10:45:24;;;;;;;3.85;2.28;;;;;;;23.41;61.49;101959.19;5173565;28;20440;-67
2021/07/08 10:48:19;;;;;;;3.90;1.90;;;;;;;23.57;61.60;101949.28;5167352;28;20077;-67
2021/07/08 10:50:55;;;;;;;5.03;2.13;;;;;;;23.40;61.05;101952.16;5172372;28;20039;-67
2021/07/08 10:53:34;;;;;;;4.97;2.38;;;;;;;23.45;60.18;101947.09;5172868;28;20030;-67
2021/07/08 10:56:08;;;;;;;4.03;2.03;;;;;;;23.35;61.53;101954.59;5170064;28;20381;-67
2021/07/08 10:58:51;;;;;;;4.15;2.50;;;;;;;23.41;61.39;101958.34;5175576;28;20113;-67
2021/07/08 11:01:23;;;;;;;5.47;2.70;;;;;;;23.47;59.02;101945.06;5169256;28;20030;-67
2021/07/08 11:03:58;;;;;;;6.43;2.67;;;;;;;23.45;59.26;101938.22;5171804;28;20058;-67
2021/07/08 11:06:38;;;;;;;4.38;2.45;;;;;;;23.59;61.45;101941.88;5169772;28;20031;-67
2021/07/08 11:09:16;;;;;;;5.13;1.98;;;;;;;23.73;59.45;101941.88;5166825;28;20046;-67
2021/07/08 11:11:50;;;;;;;4.90;2.50;;;;;;;23.82;57.40;101934.53;5157927;28;20030;-67
2021/07/08 11:14:24;;;;;;;3.47;2.13;;;;;;;23.80;56.86;101933.91;5176166;28;20469;-67
2021/07/08 11:16:58;;;;;;;3.95;2.38;;;;;;;24.03;59.29;101925.69;5171262;28;20070;-67
2021/07/08 11:19:36;;;;;;;2.85;1.75;;;;;;;24.14;58.62;101933.19;5175112;28;20134;-67
2021/07/08 11:22:22;;;;;;;5.45;2.45;;;;;;;24.16;59.16;101936.50;5174361;28;20019;-67
2021/07/08 11:24:54;;;;;;;4.20;1.92;;;;;;;24.43;56.87;101945.59;5169923;28;20031;-67
2021/07/08 11:27:37;;;;;;;2.50;1.88;;;;;;;24.57;59.27;101938.47;5173062;28;20031;-67
2021/07/08 11:30:11;;;;;;;3.65;2.17;;;;;;;24.49;55.52;101935.97;5173433;28;20027;-67
2021/07/08 11:32:47;;;;;;;4.57;2.10;;;;;;;24.46;57.93;101925.63;5173433;28;20026;-67
2021/07/08 11:35:27;;;;;;;3.78;2.42;;;;;;;24.54;57.77;101930.00;5178459;28;20030;-67
2021/07/08 11:38:15;;;;;;;4.28;2.03;;;;;;;24.70;57.95;101927.00;5176654;28;20042;-67
2021/07/08 11:40:49;;;;;;;3.20;2.22;;;;;;;24.73;54.96;101931.97;5176744;28;20073;-67
2021/07/08 11:43:30;;;;;;;4.03;2.10;;;;;;;24.91;56.49;101934.97;5167445;28;20495;-67
2021/07/08 11:46:07;;;;;;;4.90;2.28;;;;;;;24.87;57.27;101939.06;5162199;28;20133;-67